createdAt,value
2023-03-26T00:00:33.104Z,9.18
2023-03-26T00:03:07.756Z,9.19
2023-03-26T00:05:36.987Z,9.20
2023-03-26T00:08:09.066Z,9.21
2023-03-26T00:10:42.081Z,9.22
2023-03-26T00:13:12.306Z,9.22
2023-03-26T00:15:42.538Z,9.23
2023-03-26T00:18:11.975Z,9.25
2023-03-26T00:20:41.602Z,9.26
2023-03-26T00:23:10.769Z,9.30
2023-03-26T00:25:43.715Z,9.30
2023-03-26T00:28:12.512Z,9.31
2023-03-26T00:30:42.488Z,9.29
2023-03-26T00:33:11.948Z,9.28
2023-03-26T00:35:43.454Z,9.27
2023-03-26T00:38:13.056Z,9.24
2023-03-26T00:40:45.105Z,9.20
2023-03-26T00:43:19.437Z,9.12
2023-03-26T00:46:09.418Z,8.99
2023-03-26T00:51:13.230Z,8.79
2023-03-26T00:53:42.974Z,8.81
2023-03-26T00:56:14.303Z,8.84
2023-03-26T00:58:44.527Z,8.87
2023-03-26T01:01:16.657Z,8.89
2023-03-26T01:04:01.175Z,8.91
2023-03-26T01:06:36.837Z,8.93
2023-03-26T01:09:15.961Z,8.95
2023-03-26T01:11:46.872Z,8.95
2023-03-26T01:14:22.092Z,8.96
2023-03-26T01:16:54.967Z,8.95
2023-03-26T01:19:38.291Z,8.94
2023-03-26T01:22:12.506Z,8.94
2023-03-26T01:24:44.211Z,8.94
2023-03-26T01:27:32.078Z,8.93
2023-03-26T01:30:12.074Z,8.94
2023-03-26T01:33:04.348Z,8.91
2023-03-26T01:35:44.910Z,8.90
2023-03-26T01:38:28.279Z,8.90
2023-03-26T01:41:06.944Z,8.91
2023-03-26T01:43:41.438Z,8.91
2023-03-26T01:46:14.431Z,8.91
2023-03-26T01:48:47.179Z,8.86
2023-03-26T01:51:32.605Z,8.84
2023-03-26T01:54:04.279Z,8.84
2023-03-26T01:56:48.907Z,8.80
2023-03-26T01:59:43.581Z,8.77
2023-03-26T02:02:18.945Z,8.75
2023-03-26T02:04:56.810Z,8.70
2023-03-26T02:07:34.596Z,8.69
2023-03-26T02:10:13.750Z,8.68
2023-03-26T02:12:47.696Z,8.67
2023-03-26T02:15:17.505Z,8.66
2023-03-26T02:17:47.705Z,8.64
2023-03-26T02:20:19.386Z,8.60
2023-03-26T02:22:56.323Z,8.58
2023-03-26T02:25:27.055Z,8.51
2023-03-26T02:27:58.829Z,8.41
2023-03-26T02:30:30.396Z,8.27
2023-03-26T02:33:00.341Z,8.14
2023-03-26T02:35:39.354Z,8.03
2023-03-26T02:38:10.274Z,7.90
2023-03-26T02:40:39.700Z,7.79
2023-03-26T02:43:11.988Z,7.70
2023-03-26T02:45:41.027Z,7.65
2023-03-26T02:48:13.152Z,7.60
2023-03-26T02:50:42.747Z,7.63
2023-03-26T02:53:14.015Z,7.65
2023-03-26T02:55:42.965Z,7.75
2023-03-26T02:58:17.651Z,7.83
2023-03-26T03:00:47.564Z,7.91
2023-03-26T03:03:17.677Z,7.99
2023-03-26T03:05:46.912Z,8.02
2023-03-26T03:08:18.481Z,8.09
2023-03-26T03:11:00.728Z,8.13
2023-03-26T03:13:31.736Z,8.17
2023-03-26T03:16:05.579Z,8.20
2023-03-26T03:18:34.816Z,8.22
2023-03-26T03:21:04.988Z,8.26
2023-03-26T03:23:35.793Z,8.29
2023-03-26T03:26:14.680Z,8.32
2023-03-26T03:28:47.546Z,8.32
2023-03-26T03:31:16.485Z,8.32
2023-03-26T03:33:48.033Z,8.34
2023-03-26T03:36:22.014Z,8.35
2023-03-26T03:38:56.684Z,8.36
2023-03-26T03:41:25.765Z,8.36
2023-03-26T03:43:59.155Z,8.35
2023-03-26T03:46:29.285Z,8.35
2023-03-26T03:48:58.513Z,8.35
2023-03-26T03:51:29.470Z,8.36
2023-03-26T03:53:58.653Z,8.35
2023-03-26T03:56:29.540Z,8.35
2023-03-26T03:59:00.980Z,8.35
2023-03-26T04:01:31.072Z,8.35
2023-03-26T04:04:01.137Z,8.34
2023-03-26T04:06:32.690Z,8.33
2023-03-26T04:09:02.513Z,8.34
2023-03-26T04:11:32.787Z,8.31
2023-03-26T04:14:05.535Z,8.27
2023-03-26T04:16:35.373Z,8.21
2023-03-26T04:19:10.405Z,8.16
2023-03-26T04:21:43.038Z,8.12
2023-03-26T04:24:16.577Z,8.12
2023-03-26T04:26:48.312Z,8.12
2023-03-26T04:29:24.979Z,8.10
2023-03-26T04:31:58.809Z,8.06
2023-03-26T04:34:30.226Z,8.04
2023-03-26T04:36:59.159Z,7.97
2023-03-26T04:39:29.549Z,7.85
2023-03-26T04:41:59.333Z,7.69
2023-03-26T04:44:32.334Z,7.53
2023-03-26T04:47:02.100Z,7.42
2023-03-26T04:49:31.540Z,7.30
2023-03-26T04:52:01.102Z,7.20
2023-03-26T04:54:31.053Z,7.10
2023-03-26T04:57:03.949Z,7.03
2023-03-26T04:59:37.310Z,6.99
2023-03-26T05:02:08.757Z,6.99
2023-03-26T05:04:41.058Z,7.05
2023-03-26T05:07:11.622Z,7.12
2023-03-26T05:09:40.604Z,7.17
2023-03-26T05:12:10.064Z,7.22
2023-03-26T05:14:40.629Z,7.28
2023-03-26T05:17:11.012Z,7.34
2023-03-26T05:19:41.353Z,7.38
2023-03-26T05:22:10.408Z,7.45
2023-03-26T05:24:39.175Z,7.49
2023-03-26T05:27:09.923Z,7.52
2023-03-26T05:29:41.325Z,7.53
2023-03-26T05:32:12.129Z,7.55
2023-03-26T05:34:41.996Z,7.57
2023-03-26T05:37:10.953Z,7.60
2023-03-26T05:39:41.429Z,7.63
2023-03-26T05:42:11.259Z,7.65
2023-03-26T05:44:41.723Z,7.70
2023-03-26T05:47:11.030Z,7.74
2023-03-26T05:49:41.335Z,7.78
2023-03-26T05:52:10.848Z,7.81
2023-03-26T05:54:50.325Z,7.83
2023-03-26T05:57:19.946Z,7.85
2023-03-26T05:59:52.397Z,7.87
2023-03-26T06:02:21.376Z,7.90
2023-03-26T06:04:51.217Z,7.94
2023-03-26T06:07:21.319Z,7.97
2023-03-26T06:09:55.169Z,8.01
2023-03-26T06:12:25.961Z,8.01
2023-03-26T06:15:03.044Z,8.02
2023-03-26T06:17:32.732Z,8.04
2023-03-26T06:20:02.108Z,8.07
2023-03-26T06:22:31.921Z,8.09
2023-03-26T06:25:01.038Z,8.15
2023-03-26T06:27:30.816Z,8.23
2023-03-26T06:30:01.209Z,8.27
2023-03-26T06:32:31.942Z,8.34
2023-03-26T06:35:02.412Z,8.41
2023-03-26T06:37:31.734Z,8.43
2023-03-26T06:40:01.286Z,8.50
2023-03-26T06:43:06.970Z,8.57
2023-03-26T06:45:22.191Z,8.66
2023-03-26T06:47:52.296Z,8.72
2023-03-26T06:50:22.987Z,8.80
2023-03-26T06:52:57.204Z,8.88
2023-03-26T06:55:30.324Z,8.91
2023-03-26T06:57:59.878Z,8.94
2023-03-26T07:00:40.384Z,8.93
2023-03-26T07:03:11.614Z,8.98
2023-03-26T07:05:59.222Z,9.00
2023-03-26T07:08:40.593Z,8.98
2023-03-26T07:11:10.552Z,8.98
2023-03-26T07:13:42.728Z,9.04
2023-03-26T07:16:14.204Z,9.10
2023-03-26T07:18:55.425Z,9.15
2023-03-26T07:21:27.239Z,9.18
2023-03-26T07:24:00.211Z,9.22
2023-03-26T07:26:44.112Z,9.24
2023-03-26T07:29:23.401Z,9.30
2023-03-26T07:32:32.796Z,9.32
2023-03-26T07:35:08.974Z,9.36
2023-03-26T07:37:56.449Z,9.39
2023-03-26T07:40:51.286Z,9.44
2023-03-26T07:43:56.501Z,9.52
2023-03-26T07:46:34.416Z,9.56
2023-03-26T07:49:14.518Z,9.54
2023-03-26T07:51:44.477Z,9.57
2023-03-26T07:54:19.211Z,9.62
2023-03-26T07:56:58.688Z,9.67
2023-03-26T07:59:38.308Z,9.74
2023-03-26T08:03:05.813Z,9.73
2023-03-26T08:05:42.082Z,9.80
2023-03-26T08:08:21.371Z,9.88
2023-03-26T08:11:08.828Z,9.93
2023-03-26T08:14:00.488Z,9.95
2023-03-26T08:16:38.238Z,10.00
2023-03-26T08:19:41.082Z,10.02
2023-03-26T08:22:21.194Z,10.06
2023-03-26T08:25:20.246Z,10.11
2023-03-26T08:28:12.410Z,10.19
2023-03-26T08:30:41.914Z,10.30
2023-03-26T08:33:17.003Z,10.40
2023-03-26T08:35:47.386Z,10.49
2023-03-26T08:38:20.244Z,10.61
2023-03-26T08:41:33.321Z,10.77
2023-03-26T08:45:05.414Z,10.81
2023-03-26T08:48:37.091Z,10.78
2023-03-26T08:52:01.916Z,10.83
2023-03-26T08:55:37.302Z,10.92
2023-03-26T08:58:59.899Z,10.95
2023-03-26T09:02:33.228Z,11.07
2023-03-26T09:05:49.112Z,11.28
2023-03-26T09:09:06.240Z,11.39
2023-03-26T09:12:35.401Z,11.50
2023-03-26T09:15:41.066Z,11.58
2023-03-26T09:19:16.561Z,11.75
2023-03-26T09:22:34.528Z,11.81
2023-03-26T09:25:42.999Z,11.83
2023-03-26T09:28:59.209Z,11.81
2023-03-26T09:32:25.208Z,11.71
2023-03-26T09:35:21.172Z,11.65
2023-03-26T09:38:03.562Z,11.65
2023-03-26T09:40:43.012Z,11.63
2023-03-26T09:44:13.559Z,11.63
2023-03-26T09:47:01.007Z,11.61
2023-03-26T09:49:48.420Z,11.64
2023-03-26T09:52:54.970Z,11.62
2023-03-26T09:55:40.956Z,11.67
2023-03-26T09:59:10.846Z,11.73
2023-03-26T10:01:46.372Z,11.84
2023-03-26T10:04:56.678Z,11.89
2023-03-26T10:07:54.361Z,11.97
2023-03-26T10:10:39.777Z,12.02
2023-03-26T10:13:23.885Z,12.12
2023-03-26T10:16:17.992Z,12.15
2023-03-26T10:19:05.967Z,12.23
2023-03-26T10:21:45.795Z,12.38
2023-03-26T10:24:47.791Z,12.33
2023-03-26T10:27:36.673Z,12.30
2023-03-26T10:30:35.655Z,12.26
2023-03-26T10:33:25.148Z,12.17
2023-03-26T10:36:13.590Z,12.11
2023-03-26T10:39:09.786Z,12.15
2023-03-26T10:41:51.228Z,12.24
2023-03-26T10:44:45.625Z,12.30
2023-03-26T10:47:37.366Z,12.25
2023-03-26T10:50:34.926Z,12.33
2023-03-26T10:53:10.610Z,12.36
2023-03-26T10:55:45.427Z,12.47
2023-03-26T10:58:24.958Z,12.54
2023-03-26T11:01:02.254Z,12.48
2023-03-26T11:03:52.323Z,12.45
2023-03-26T11:06:36.620Z,12.54
2023-03-26T11:09:27.632Z,12.63
2023-03-26T11:12:26.648Z,12.67
2023-03-26T11:15:15.352Z,12.58
2023-03-26T11:17:56.997Z,12.63
2023-03-26T11:20:37.988Z,12.67
2023-03-26T11:23:28.548Z,12.80
2023-03-26T11:26:16.911Z,13.06
2023-03-26T11:29:32.217Z,13.20
2023-03-26T11:32:06.191Z,13.00
2023-03-26T11:34:39.868Z,12.77
2023-03-26T11:37:17.248Z,12.70
2023-03-26T11:39:58.472Z,12.73
2023-03-26T11:42:28.488Z,12.64
2023-03-26T11:45:01.523Z,12.63
2023-03-26T11:47:38.274Z,12.68
2023-03-26T11:50:16.468Z,12.69
2023-03-26T11:52:47.073Z,12.75
2023-03-26T11:55:18.129Z,12.80
2023-03-26T11:57:56.799Z,12.90
2023-03-26T12:00:28.872Z,12.95
2023-03-26T12:03:00.538Z,13.05
2023-03-26T12:05:33.714Z,13.14
2023-03-26T12:08:17.556Z,13.29
2023-03-26T12:11:01.818Z,13.47
2023-03-26T12:13:37.256Z,13.73
2023-03-26T12:16:14.307Z,14.25
2023-03-26T12:18:45.243Z,14.55
2023-03-26T12:21:17.128Z,14.48
2023-03-26T12:24:00.104Z,14.29
2023-03-26T12:26:43.002Z,14.21
2023-03-26T12:29:16.084Z,14.11
2023-03-26T12:31:58.519Z,14.04
2023-03-26T12:34:35.085Z,14.25
2023-03-26T12:37:06.999Z,14.08
2023-03-26T12:40:10.740Z,13.76
2023-03-26T12:44:49.409Z,13.45
2023-03-26T12:45:27.444Z,13.18
2023-03-26T12:48:03.746Z,12.99
2023-03-26T12:51:06.078Z,12.96
2023-03-26T12:54:04.965Z,12.94
2023-03-26T12:56:44.543Z,12.95
2023-03-26T12:59:39.000Z,12.91
2023-03-26T13:02:32.910Z,12.83
2023-03-26T13:05:19.690Z,12.71
2023-03-26T13:08:08.408Z,12.68
2023-03-26T13:10:53.527Z,12.56
2023-03-26T13:14:07.052Z,12.56
2023-03-26T13:16:46.712Z,12.66
2023-03-26T13:19:21.513Z,12.95
2023-03-26T13:22:15.749Z,14.05
2023-03-26T13:24:53.986Z,15.15
2023-03-26T13:27:45.966Z,15.45
2023-03-26T13:30:31.492Z,15.04
2023-03-26T13:33:37.170Z,14.49
2023-03-26T13:36:24.008Z,14.11
2023-03-26T13:39:18.688Z,14.07
2023-03-26T13:42:37.940Z,13.91
2023-03-26T13:45:24.025Z,13.81
2023-03-26T13:47:59.265Z,13.67
2023-03-26T13:50:33.880Z,13.79
2023-03-26T13:53:08.932Z,14.57
2023-03-26T13:55:43.193Z,15.04
2023-03-26T13:58:19.406Z,14.67
2023-03-26T14:00:57.346Z,14.41
2023-03-26T14:03:37.635Z,14.35
2023-03-26T14:06:21.869Z,13.98
2023-03-26T14:08:59.644Z,13.63
2023-03-26T14:11:41.891Z,13.41
2023-03-26T14:14:18.457Z,13.23
2023-03-26T14:16:55.340Z,12.97
2023-03-26T14:19:50.052Z,12.96
2023-03-26T14:22:33.934Z,13.13
2023-03-26T14:25:33.792Z,13.30
2023-03-26T14:28:21.694Z,13.32
2023-03-26T14:31:13.869Z,13.36
2023-03-26T14:34:05.040Z,13.56
2023-03-26T14:37:06.636Z,13.62
2023-03-26T14:40:17.077Z,13.48
2023-03-26T14:42:56.666Z,13.34
2023-03-26T14:46:07.667Z,13.62
2023-03-26T14:49:18.447Z,13.75
2023-03-26T14:52:03.376Z,13.39
2023-03-26T14:54:36.854Z,12.92
2023-03-26T14:57:54.697Z,12.63
2023-03-26T15:01:25.890Z,14.16
2023-03-26T15:04:46.407Z,14.61
2023-03-26T15:08:00.642Z,14.43
2023-03-26T15:11:25.011Z,16.47
2023-03-26T15:14:43.818Z,17.46
2023-03-26T15:18:18.176Z,18.46
2023-03-26T15:21:53.687Z,19.59
2023-03-26T15:25:01.918Z,20.13
2023-03-26T15:28:04.702Z,20.04
2023-03-26T15:31:19.203Z,19.53
2023-03-26T15:34:31.015Z,18.62
2023-03-26T15:37:58.948Z,17.11
2023-03-26T15:41:01.013Z,16.33
2023-03-26T15:44:23.260Z,15.78
2023-03-26T15:47:28.269Z,15.60
2023-03-26T15:50:16.162Z,16.95
2023-03-26T15:52:56.732Z,16.46
2023-03-26T15:55:36.919Z,16.23
2023-03-26T15:58:16.303Z,16.90
2023-03-26T16:00:57.058Z,16.04
2023-03-26T16:03:42.236Z,15.01
2023-03-26T16:06:32.834Z,16.27
2023-03-26T16:09:39.167Z,17.36
2023-03-26T16:12:34.897Z,17.93
2023-03-26T16:15:32.475Z,18.73
2023-03-26T16:18:34.234Z,19.50
2023-03-26T16:21:56.186Z,19.66
2023-03-26T16:24:35.405Z,19.71
2023-03-26T16:27:33.561Z,19.74
2023-03-26T16:30:20.953Z,19.99
2023-03-26T16:32:59.415Z,20.18
2023-03-26T16:36:07.618Z,20.24
2023-03-26T16:38:57.295Z,19.13
2023-03-26T16:41:31.701Z,17.89
2023-03-26T16:44:20.712Z,17.90
2023-03-26T16:46:59.096Z,18.28
2023-03-26T16:50:08.865Z,18.39
2023-03-26T16:52:52.292Z,17.72
2023-03-26T16:55:36.208Z,16.57
2023-03-26T16:58:18.281Z,15.28
2023-03-26T17:01:06.565Z,15.02
2023-03-26T17:03:46.422Z,14.37
2023-03-26T17:06:54.276Z,13.15
2023-03-26T17:09:39.368Z,12.05
2023-03-26T17:12:20.681Z,11.40
2023-03-26T17:15:22.682Z,10.93
2023-03-26T17:18:17.672Z,10.50
2023-03-26T17:21:00.028Z,10.30
2023-03-26T17:23:56.254Z,10.15
2023-03-26T17:26:34.306Z,9.99
2023-03-26T17:29:28.699Z,9.77
2023-03-26T17:32:14.456Z,9.49
2023-03-26T17:35:06.285Z,9.18
2023-03-26T17:37:50.313Z,8.98
2023-03-26T17:40:54.558Z,8.80
2023-03-26T17:43:43.688Z,8.65
2023-03-26T17:46:36.136Z,8.45
2023-03-26T17:49:17.430Z,8.30
2023-03-26T17:51:55.582Z,8.18
2023-03-26T17:54:40.238Z,8.03
2023-03-26T17:57:17.167Z,7.89
2023-03-26T17:59:50.251Z,7.77
2023-03-26T18:02:24.303Z,7.65
2023-03-26T18:04:56.019Z,7.55
2023-03-26T18:08:33.939Z,7.43
2023-03-26T18:11:22.264Z,7.33
2023-03-26T18:14:37.607Z,7.25
2023-03-26T18:17:11.274Z,7.21
2023-03-26T18:19:55.324Z,7.17
2023-03-26T18:22:29.499Z,7.13
2023-03-26T18:25:04.511Z,7.08
2023-03-26T18:27:40.633Z,7.09
2023-03-26T18:30:20.718Z,7.08
2023-03-26T18:33:03.519Z,7.05
2023-03-26T18:35:43.570Z,7.00
2023-03-26T18:38:35.126Z,6.94
2023-03-26T18:41:09.055Z,6.84
2023-03-26T18:43:44.456Z,6.74
2023-03-26T18:46:15.502Z,6.65
2023-03-26T18:48:48.562Z,6.57
2023-03-26T18:51:23.279Z,6.47
2023-03-26T18:54:02.076Z,6.39
2023-03-26T18:56:35.271Z,6.31
2023-03-26T18:59:07.184Z,6.27
2023-03-26T19:01:39.809Z,6.22
2023-03-26T19:04:13.860Z,6.18
2023-03-26T19:06:45.213Z,6.14
2023-03-26T19:09:28.004Z,6.09
2023-03-26T19:12:01.407Z,6.05
2023-03-26T19:14:36.660Z,6.04
2023-03-26T19:17:13.579Z,6.03
2023-03-26T19:19:45.299Z,6.04
2023-03-26T19:22:15.188Z,6.07
2023-03-26T19:24:45.471Z,6.09
2023-03-26T19:27:23.299Z,6.11
2023-03-26T19:29:52.812Z,6.17
2023-03-26T19:32:32.950Z,6.28
2023-03-26T19:35:32.093Z,6.33
2023-03-26T19:38:02.680Z,6.37
2023-03-26T19:40:37.343Z,6.36
2023-03-26T19:43:08.466Z,6.27
2023-03-26T19:45:38.613Z,6.16
2023-03-26T19:48:45.264Z,6.07
2023-03-26T19:51:34.770Z,5.98
2023-03-26T19:54:16.752Z,5.95
2023-03-26T19:56:46.063Z,5.91
2023-03-26T19:59:16.013Z,5.87
2023-03-26T20:01:45.764Z,5.86
2023-03-26T20:04:15.560Z,5.86
2023-03-26T20:06:49.443Z,5.81
2023-03-26T20:09:19.372Z,5.76
2023-03-26T20:11:48.754Z,5.71
2023-03-26T20:14:26.591Z,5.64
2023-03-26T20:16:58.561Z,5.60
2023-03-26T20:19:29.916Z,5.55
2023-03-26T20:22:10.289Z,5.49
2023-03-26T20:24:41.412Z,5.42
2023-03-26T20:27:12.838Z,5.41
2023-03-26T20:29:43.601Z,5.41
2023-03-26T20:32:27.659Z,5.41
2023-03-26T20:34:57.850Z,5.39
2023-03-26T20:37:31.863Z,5.40
2023-03-26T20:40:02.161Z,5.38
2023-03-26T20:42:31.026Z,5.35
2023-03-26T20:45:05.070Z,5.32
2023-03-26T20:47:34.389Z,5.28
2023-03-26T20:50:05.931Z,5.23
2023-03-26T20:52:36.311Z,5.18
2023-03-26T20:55:06.253Z,5.14
2023-03-26T20:57:35.820Z,5.11
2023-03-26T21:00:15.274Z,5.08
2023-03-26T21:02:46.375Z,5.07
2023-03-26T21:05:19.154Z,5.07
2023-03-26T21:07:53.090Z,5.12
2023-03-26T21:10:29.832Z,5.21
2023-03-26T21:13:07.831Z,5.30
2023-03-26T21:15:38.576Z,5.32
2023-03-26T21:18:08.868Z,5.26
2023-03-26T21:20:40.906Z,5.20
2023-03-26T21:23:18.804Z,5.16
2023-03-26T21:26:01.518Z,5.07
2023-03-26T21:28:42.391Z,5.02
2023-03-26T21:31:18.671Z,4.95
2023-03-26T21:33:49.744Z,4.95
2023-03-26T21:36:24.368Z,4.95
2023-03-26T21:38:59.326Z,4.92
2023-03-26T21:41:41.897Z,4.90
2023-03-26T21:44:12.782Z,4.84
2023-03-26T21:46:45.993Z,4.84
2023-03-26T21:49:17.988Z,4.87
2023-03-26T21:51:49.192Z,4.86
2023-03-26T21:54:32.664Z,4.87
2023-03-26T21:57:40.292Z,4.88
2023-03-26T22:00:16.159Z,4.86
2023-03-26T22:02:59.918Z,4.83
2023-03-26T22:05:38.182Z,4.79
2023-03-26T22:08:09.585Z,4.75
2023-03-26T22:10:49.085Z,4.73
2023-03-26T22:13:21.293Z,4.73
2023-03-26T22:15:50.967Z,4.73
2023-03-26T22:18:27.962Z,4.73
2023-03-26T22:20:59.505Z,4.69
2023-03-26T22:23:37.081Z,4.68
2023-03-26T22:26:08.834Z,4.67
2023-03-26T22:28:38.405Z,4.63
2023-03-26T22:31:09.166Z,4.59
2023-03-26T22:33:43.138Z,4.54
2023-03-26T22:36:22.422Z,4.49
2023-03-26T22:38:55.464Z,4.45
2023-03-26T22:41:47.390Z,4.43
2023-03-26T22:44:20.249Z,4.38
2023-03-26T22:46:51.865Z,4.37
2023-03-26T22:49:22.448Z,4.39
2023-03-26T22:51:53.444Z,4.39
2023-03-26T22:54:25.997Z,4.37
2023-03-26T22:57:16.243Z,4.32
2023-03-26T22:59:46.948Z,4.30
2023-03-26T23:02:30.035Z,4.28
2023-03-26T23:05:01.967Z,4.26
2023-03-26T23:07:34.431Z,4.22
2023-03-26T23:10:06.618Z,4.20
2023-03-26T23:12:44.732Z,4.17
2023-03-26T23:15:17.311Z,4.15
2023-03-26T23:18:02.812Z,4.11
2023-03-26T23:21:02.855Z,4.15
2023-03-26T23:23:48.970Z,4.15
2023-03-26T23:26:49.541Z,4.14
2023-03-26T23:29:40.529Z,4.12
2023-03-26T23:32:24.214Z,4.14
2023-03-26T23:35:07.342Z,4.13
2023-03-26T23:37:51.967Z,4.14
2023-03-26T23:40:31.470Z,4.13
2023-03-26T23:43:09.582Z,4.11
2023-03-26T23:45:48.088Z,4.09
2023-03-26T23:48:22.446Z,4.09
2023-03-26T23:51:08.626Z,4.06
2023-03-26T23:53:52.236Z,4.01
2023-03-26T23:56:37.108Z,3.96
2023-03-26T23:59:15.301Z,3.96
